createdAt,value
2023-03-27T00:00:15.640Z,79.51
2023-03-27T00:03:04.428Z,79.64
2023-03-27T00:05:34.086Z,79.88
2023-03-27T00:08:03.250Z,80.18
2023-03-27T00:10:31.914Z,80.21
2023-03-27T00:13:02.734Z,80.41
2023-03-27T00:15:32.636Z,80.51
2023-03-27T00:18:03.332Z,80.33
2023-03-27T00:20:36.575Z,80.29
2023-03-27T00:23:06.160Z,80.13
2023-03-27T00:25:35.035Z,80.26
2023-03-27T00:28:03.758Z,80.08
2023-03-27T00:30:33.054Z,80.27
2023-03-27T00:33:01.946Z,80.16
2023-03-27T00:35:30.878Z,80.27
2023-03-27T00:38:00.504Z,80.46
2023-03-27T00:40:32.303Z,80.58
2023-03-27T00:43:00.334Z,80.47
2023-03-27T00:45:33.452Z,80.43
2023-03-27T00:48:05.921Z,80.44
2023-03-27T00:50:38.782Z,80.47
2023-03-27T00:53:12.427Z,80.25
2023-03-27T00:55:43.970Z,80.33
2023-03-27T00:58:17.309Z,80.58
2023-03-27T01:00:49.096Z,80.70
2023-03-27T01:03:19.713Z,80.71
2023-03-27T01:05:50.337Z,80.65
2023-03-27T01:08:20.463Z,80.84
2023-03-27T01:10:58.973Z,80.84
2023-03-27T01:13:41.698Z,80.71
2023-03-27T01:16:18.447Z,80.79
2023-03-27T01:18:59.201Z,80.63
2023-03-27T01:22:00.423Z,80.53
2023-03-27T01:24:59.720Z,80.63
2023-03-27T01:27:48.896Z,80.97
2023-03-27T01:30:19.655Z,81.14
2023-03-27T01:33:25.343Z,81.62
2023-03-27T01:36:25.394Z,81.67
2023-03-27T01:39:17.714Z,81.73
2023-03-27T01:41:51.495Z,81.61
2023-03-27T01:44:43.837Z,81.61
2023-03-27T01:47:32.704Z,81.34
2023-03-27T01:50:08.987Z,81.28
2023-03-27T01:52:40.778Z,81.44
2023-03-27T01:55:15.216Z,81.16
2023-03-27T01:57:49.240Z,81.18
2023-03-27T02:00:23.458Z,81.04
2023-03-27T02:02:57.422Z,81.14
2023-03-27T02:05:33.116Z,80.81
2023-03-27T02:08:08.891Z,80.77
2023-03-27T02:10:43.224Z,80.88
2023-03-27T02:13:20.888Z,81.26
2023-03-27T02:15:52.364Z,81.38
2023-03-27T02:18:28.130Z,81.05
2023-03-27T02:20:57.265Z,81.17
2023-03-27T02:23:30.358Z,81.29
2023-03-27T02:26:01.137Z,81.30
2023-03-27T02:28:48.918Z,81.48
2023-03-27T02:31:35.077Z,81.74
2023-03-27T02:34:31.049Z,81.38
2023-03-27T02:37:08.765Z,81.65
2023-03-27T02:40:13.780Z,81.84
2023-03-27T02:42:53.711Z,82.02
2023-03-27T02:45:29.108Z,81.88
2023-03-27T02:48:02.823Z,81.93
2023-03-27T02:50:37.972Z,81.90
2023-03-27T02:53:15.764Z,82.03
2023-03-27T02:55:50.037Z,81.96
2023-03-27T02:58:24.628Z,81.85
2023-03-27T03:01:08.682Z,82.17
2023-03-27T03:04:06.998Z,82.55
2023-03-27T03:07:03.698Z,82.87
2023-03-27T03:09:32.649Z,83.03
2023-03-27T03:12:02.033Z,82.83
2023-03-27T03:14:40.297Z,82.86
2023-03-27T03:17:08.939Z,82.79
2023-03-27T03:19:37.536Z,82.89
2023-03-27T03:22:06.851Z,83.12
2023-03-27T03:24:36.895Z,83.11
2023-03-27T03:27:06.411Z,83.41
2023-03-27T03:29:43.699Z,83.11
2023-03-27T03:32:17.697Z,83.15
2023-03-27T03:34:48.186Z,83.37
2023-03-27T03:37:17.380Z,83.52
2023-03-27T03:39:46.537Z,83.93
2023-03-27T03:42:22.461Z,83.75
2023-03-27T03:44:53.366Z,83.91
2023-03-27T03:47:23.330Z,83.93
2023-03-27T03:49:52.087Z,83.94
2023-03-27T03:52:20.985Z,84.32
2023-03-27T03:54:49.622Z,84.42
2023-03-27T03:57:18.365Z,84.55
2023-03-27T03:59:54.890Z,84.51
2023-03-27T04:02:31.621Z,84.54
2023-03-27T04:05:08.767Z,84.48
2023-03-27T04:07:40.580Z,84.67
2023-03-27T04:10:29.096Z,84.68
2023-03-27T04:12:58.893Z,84.80
2023-03-27T04:15:52.163Z,85.17
2023-03-27T04:18:31.857Z,85.32
2023-03-27T04:21:02.531Z,85.42
2023-03-27T04:23:31.451Z,85.64
2023-03-27T04:26:01.468Z,85.88
2023-03-27T04:28:41.527Z,86.08
2023-03-27T04:31:26.481Z,86.15
2023-03-27T04:34:19.572Z,86.54
2023-03-27T04:37:11.458Z,86.70
2023-03-27T04:39:42.920Z,86.88
2023-03-27T04:42:12.102Z,87.15
2023-03-27T04:44:41.265Z,87.38
2023-03-27T04:47:10.090Z,87.53
2023-03-27T04:49:41.745Z,87.84
2023-03-27T04:52:20.796Z,87.80
2023-03-27T04:54:49.690Z,87.89
2023-03-27T04:57:21.476Z,88.13
2023-03-27T04:59:50.864Z,88.18
2023-03-27T05:02:57.753Z,88.24
2023-03-27T05:05:35.996Z,88.68
2023-03-27T05:08:06.852Z,88.89
2023-03-27T05:10:35.809Z,89.16
2023-03-27T05:13:04.557Z,89.67
2023-03-27T05:15:33.416Z,89.78
2023-03-27T05:18:03.887Z,89.90
2023-03-27T05:20:33.602Z,90.15
2023-03-27T05:23:06.130Z,90.39
2023-03-27T05:25:38.860Z,90.49
2023-03-27T05:28:11.326Z,90.65
2023-03-27T05:30:41.614Z,90.96
2023-03-27T05:33:16.961Z,91.01
2023-03-27T05:35:47.633Z,91.39
2023-03-27T05:38:16.929Z,91.33
2023-03-27T05:41:09.725Z,91.60
2023-03-27T05:43:41.041Z,91.47
2023-03-27T05:46:09.737Z,91.23
2023-03-27T05:48:43.886Z,90.98
2023-03-27T05:51:12.632Z,90.57
2023-03-27T05:53:41.522Z,90.48
2023-03-27T05:56:25.148Z,89.64
2023-03-27T05:58:59.982Z,89.85
2023-03-27T06:01:28.885Z,89.95
2023-03-27T06:03:59.576Z,89.89
2023-03-27T06:06:32.858Z,89.54
2023-03-27T06:09:03.985Z,89.12
2023-03-27T06:11:32.976Z,89.54
2023-03-27T06:14:01.839Z,89.71
2023-03-27T06:16:46.173Z,90.12
2023-03-27T06:19:33.356Z,90.55
2023-03-27T06:22:02.599Z,90.46
2023-03-27T06:24:31.624Z,90.09
2023-03-27T06:27:03.150Z,89.95
2023-03-27T06:29:33.108Z,90.10
2023-03-27T06:32:01.967Z,89.60
2023-03-27T06:34:35.401Z,89.17
2023-03-27T06:37:12.850Z,89.49
2023-03-27T06:39:43.564Z,88.21
2023-03-27T06:42:12.481Z,88.28
2023-03-27T06:44:54.034Z,87.46
2023-03-27T06:47:54.401Z,86.71
2023-03-27T06:50:39.988Z,85.63
2023-03-27T06:53:19.716Z,85.03
2023-03-27T06:55:55.820Z,84.45
2023-03-27T06:58:25.474Z,84.12
2023-03-27T07:00:54.774Z,82.59
2023-03-27T07:03:25.102Z,82.81
2023-03-27T07:05:53.859Z,83.00
2023-03-27T07:08:25.399Z,83.53
2023-03-27T07:11:10.779Z,83.81
2023-03-27T07:13:45.193Z,83.10
2023-03-27T07:16:22.025Z,82.84
2023-03-27T07:18:50.939Z,81.86
2023-03-27T07:21:19.958Z,80.96
2023-03-27T07:23:48.847Z,80.73
2023-03-27T07:26:22.541Z,80.62
2023-03-27T07:29:02.455Z,79.49
2023-03-27T07:31:51.060Z,79.75
2023-03-27T07:34:20.419Z,80.86
2023-03-27T07:37:25.216Z,81.96
2023-03-27T07:40:13.509Z,82.20
2023-03-27T07:42:45.403Z,82.39
2023-03-27T07:45:22.073Z,82.49
2023-03-27T07:47:51.894Z,83.32
2023-03-27T07:50:21.526Z,83.92
2023-03-27T07:52:50.598Z,84.51
2023-03-27T07:55:22.443Z,84.34
2023-03-27T07:58:03.458Z,84.93
2023-03-27T08:00:35.735Z,85.62
2023-03-27T08:03:13.952Z,85.87
2023-03-27T08:05:53.850Z,86.18
2023-03-27T08:08:23.306Z,86.64
2023-03-27T08:10:59.678Z,86.26
2023-03-27T08:13:32.121Z,88.63
2023-03-27T08:16:04.277Z,90.60
2023-03-27T08:18:33.114Z,90.07
2023-03-27T08:21:03.054Z,88.34
2023-03-27T08:23:33.178Z,88.60
2023-03-27T08:26:20.365Z,89.17
2023-03-27T08:28:55.571Z,89.70
2023-03-27T08:31:28.519Z,89.69
2023-03-27T08:34:00.631Z,89.92
2023-03-27T08:36:33.856Z,89.99
2023-03-27T08:39:04.373Z,90.28
2023-03-27T08:41:44.010Z,91.10
2023-03-27T08:44:22.798Z,91.58
2023-03-27T08:46:55.467Z,91.75
2023-03-27T08:49:30.703Z,91.69
2023-03-27T08:52:24.644Z,92.00
2023-03-27T08:54:58.736Z,92.98
2023-03-27T08:57:40.375Z,93.28
2023-03-27T09:00:27.396Z,93.32
2023-03-27T09:03:15.398Z,93.18
2023-03-27T09:05:49.408Z,93.45
2023-03-27T09:08:33.344Z,93.00
2023-03-27T09:11:19.406Z,92.70
2023-03-27T09:13:56.293Z,92.84
2023-03-27T09:16:31.345Z,92.73
2023-03-27T09:19:13.148Z,92.78
2023-03-27T09:21:46.804Z,92.65
2023-03-27T09:24:26.829Z,92.31
2023-03-27T09:27:18.911Z,92.54
2023-03-27T09:30:14.365Z,92.52
2023-03-27T09:32:48.771Z,92.85
2023-03-27T09:35:19.851Z,92.54
2023-03-27T09:37:53.442Z,92.29
2023-03-27T09:40:32.975Z,92.33
2023-03-27T09:43:08.461Z,92.06
2023-03-27T09:45:40.160Z,91.81
2023-03-27T09:48:19.568Z,91.77
2023-03-27T09:50:49.887Z,91.48
2023-03-27T09:53:30.768Z,91.24
2023-03-27T09:56:16.967Z,91.12
2023-03-27T09:58:53.254Z,90.83
2023-03-27T10:01:29.620Z,90.71
2023-03-27T10:04:13.760Z,90.70
2023-03-27T10:06:46.938Z,90.77
2023-03-27T10:09:25.868Z,90.47
2023-03-27T10:12:09.967Z,89.70
2023-03-27T10:14:42.007Z,88.97
2023-03-27T10:17:24.045Z,88.87
2023-03-27T10:20:08.240Z,87.96
2023-03-27T10:22:40.601Z,87.98
2023-03-27T10:25:17.228Z,87.36
2023-03-27T10:28:18.177Z,87.30
2023-03-27T10:31:09.311Z,86.27
2023-03-27T10:33:51.702Z,85.83
2023-03-27T10:36:40.124Z,85.62
2023-03-27T10:39:15.813Z,84.44
2023-03-27T10:42:08.217Z,82.89
2023-03-27T10:44:38.263Z,82.96
2023-03-27T10:47:17.655Z,83.26
2023-03-27T10:49:53.197Z,83.23
2023-03-27T10:52:37.042Z,82.83
2023-03-27T10:55:30.754Z,81.76
2023-03-27T10:58:05.186Z,80.76
2023-03-27T11:00:40.915Z,81.50
2023-03-27T11:03:17.374Z,81.32
2023-03-27T11:05:48.849Z,80.42
2023-03-27T11:08:44.655Z,80.32
2023-03-27T11:11:19.592Z,80.70
2023-03-27T11:13:50.430Z,79.38
2023-03-27T11:16:25.905Z,78.80
2023-03-27T11:19:32.916Z,76.39
2023-03-27T11:22:33.005Z,77.24
2023-03-27T11:25:07.656Z,77.49
2023-03-27T11:27:40.960Z,77.60
2023-03-27T11:30:33.665Z,76.06
2023-03-27T11:33:16.333Z,74.77
2023-03-27T11:35:52.688Z,75.15
2023-03-27T11:38:46.604Z,75.14
2023-03-27T11:41:15.697Z,74.33
2023-03-27T11:43:44.701Z,73.89
2023-03-27T11:46:46.761Z,72.12
2023-03-27T11:49:30.887Z,70.57
2023-03-27T11:52:12.209Z,69.26
2023-03-27T11:54:56.096Z,69.72
2023-03-27T11:57:27.582Z,68.35
2023-03-27T12:00:27.593Z,68.74
2023-03-27T12:03:33.238Z,69.02
2023-03-27T12:06:12.938Z,69.71
2023-03-27T12:08:59.713Z,69.95
2023-03-27T12:11:29.842Z,70.05
2023-03-27T12:14:40.585Z,70.10
2023-03-27T12:17:28.045Z,69.79
2023-03-27T12:20:27.412Z,69.58
2023-03-27T12:23:16.296Z,69.29
2023-03-27T12:26:23.194Z,69.72
2023-03-27T12:29:23.523Z,69.97
2023-03-27T12:32:16.678Z,70.01
2023-03-27T12:34:54.386Z,69.24
2023-03-27T12:37:30.409Z,67.30
2023-03-27T12:40:00.692Z,66.89
2023-03-27T12:42:51.151Z,67.89
2023-03-27T12:45:22.893Z,67.51
2023-03-27T12:48:19.192Z,67.19
2023-03-27T12:50:57.789Z,67.32
2023-03-27T12:53:53.795Z,65.96
2023-03-27T12:56:29.705Z,65.21
2023-03-27T12:58:59.546Z,65.55
2023-03-27T13:01:54.861Z,65.28
2023-03-27T13:04:42.065Z,64.71
2023-03-27T13:07:20.974Z,64.45
2023-03-27T13:10:20.060Z,64.32
2023-03-27T13:13:09.997Z,63.46
2023-03-27T13:16:01.813Z,62.75
2023-03-27T13:18:58.639Z,62.19
2023-03-27T13:21:38.854Z,61.25
2023-03-27T13:24:26.101Z,60.39
2023-03-27T13:27:11.763Z,59.48
2023-03-27T13:29:40.921Z,61.26
2023-03-27T13:32:32.159Z,61.82
2023-03-27T13:35:33.644Z,61.23
2023-03-27T13:38:03.771Z,61.65
2023-03-27T13:40:49.203Z,62.24
2023-03-27T13:43:25.551Z,61.25
2023-03-27T13:46:05.999Z,60.29
2023-03-27T13:49:15.715Z,59.81
2023-03-27T13:52:13.927Z,60.08
2023-03-27T13:55:20.098Z,60.17
2023-03-27T13:58:24.119Z,59.37
2023-03-27T14:01:31.031Z,59.33
2023-03-27T14:04:21.570Z,59.46
2023-03-27T14:07:26.398Z,60.10
2023-03-27T14:10:23.003Z,60.62
2023-03-27T14:13:17.980Z,60.77
2023-03-27T14:16:08.933Z,58.76
2023-03-27T14:19:15.547Z,56.69
2023-03-27T14:21:55.782Z,56.34
2023-03-27T14:24:32.997Z,56.15
2023-03-27T14:27:23.930Z,56.10
2023-03-27T14:30:07.358Z,56.69
2023-03-27T14:32:39.596Z,56.90
2023-03-27T14:35:28.579Z,56.79
2023-03-27T14:38:18.457Z,56.81
2023-03-27T14:40:51.872Z,57.00
2023-03-27T14:43:28.267Z,57.19
2023-03-27T14:46:06.821Z,55.66
2023-03-27T14:48:39.071Z,54.04
2023-03-27T14:51:12.827Z,53.06
2023-03-27T14:53:44.401Z,53.06
2023-03-27T14:56:26.373Z,53.42
2023-03-27T14:59:00.332Z,53.52
2023-03-27T15:01:35.602Z,54.60
2023-03-27T15:04:07.637Z,55.08
2023-03-27T15:06:37.762Z,53.87
2023-03-27T15:09:15.874Z,53.21
2023-03-27T15:12:06.207Z,53.54
2023-03-27T15:14:37.209Z,53.92
2023-03-27T15:17:09.441Z,54.55
2023-03-27T15:19:47.854Z,53.87
2023-03-27T15:22:23.406Z,53.64
2023-03-27T15:24:55.645Z,53.32
2023-03-27T15:27:30.416Z,53.08
2023-03-27T15:30:03.017Z,50.92
2023-03-27T15:32:41.716Z,49.78
2023-03-27T15:35:17.801Z,50.53
2023-03-27T15:37:47.498Z,50.77
2023-03-27T15:40:40.231Z,51.90
2023-03-27T15:43:22.677Z,52.58
2023-03-27T15:46:11.826Z,53.19
2023-03-27T15:48:44.441Z,53.17
2023-03-27T15:51:27.523Z,52.97
2023-03-27T15:53:56.555Z,52.48
2023-03-27T15:56:28.954Z,52.20
2023-03-27T15:59:01.535Z,52.45
2023-03-27T16:01:33.241Z,51.99
2023-03-27T16:04:07.664Z,51.31
2023-03-27T16:06:40.270Z,51.43
2023-03-27T16:09:22.016Z,51.48
2023-03-27T16:11:53.435Z,51.70
2023-03-27T16:14:28.157Z,51.38
2023-03-27T16:17:18.487Z,51.42
2023-03-27T16:19:53.222Z,51.55
2023-03-27T16:22:25.862Z,50.92
2023-03-27T16:24:55.571Z,50.73
2023-03-27T16:27:27.002Z,49.53
2023-03-27T16:29:55.631Z,49.25
2023-03-27T16:32:24.275Z,48.84
2023-03-27T16:34:53.049Z,48.82
2023-03-27T16:37:24.988Z,48.97
2023-03-27T16:39:54.271Z,49.26
2023-03-27T16:42:26.038Z,49.82
2023-03-27T16:44:55.346Z,49.51
2023-03-27T16:47:24.102Z,50.18
2023-03-27T16:50:10.156Z,50.64
2023-03-27T16:52:39.978Z,51.36
2023-03-27T16:55:12.315Z,51.82
2023-03-27T16:57:40.078Z,52.42
2023-03-27T17:00:11.738Z,52.98
2023-03-27T17:02:41.125Z,52.60
2023-03-27T17:05:10.791Z,51.60
2023-03-27T17:07:41.092Z,51.00
2023-03-27T17:10:10.730Z,50.50
2023-03-27T17:12:40.396Z,50.01
2023-03-27T17:15:10.866Z,49.24
2023-03-27T17:17:39.592Z,49.18
2023-03-27T17:20:09.972Z,49.22
2023-03-27T17:22:38.953Z,49.04
2023-03-27T17:25:09.974Z,49.61
2023-03-27T17:27:38.880Z,49.63
2023-03-27T17:30:09.793Z,49.33
2023-03-27T17:32:39.280Z,49.99
2023-03-27T17:35:10.080Z,50.21
2023-03-27T17:37:38.935Z,50.66
2023-03-27T17:40:10.440Z,50.84
2023-03-27T17:42:40.496Z,51.06
2023-03-27T17:45:10.702Z,51.09
2023-03-27T17:47:39.411Z,51.05
2023-03-27T17:50:09.693Z,51.34
2023-03-27T17:52:38.551Z,51.11
2023-03-27T17:55:08.415Z,51.48
2023-03-27T17:57:37.658Z,51.78
2023-03-27T18:00:09.992Z,51.64
2023-03-27T18:02:41.490Z,52.17
2023-03-27T18:05:10.843Z,51.84
2023-03-27T18:07:42.779Z,52.04
2023-03-27T18:10:16.845Z,52.44
2023-03-27T18:12:46.107Z,52.96
2023-03-27T18:15:35.871Z,52.69
2023-03-27T18:18:09.479Z,52.97
2023-03-27T18:20:40.303Z,53.58
2023-03-27T18:23:11.361Z,53.67
2023-03-27T18:25:44.051Z,54.10
2023-03-27T18:28:15.426Z,54.47
2023-03-27T18:30:46.645Z,54.70
2023-03-27T18:33:17.011Z,54.89
2023-03-27T18:35:47.837Z,55.11
2023-03-27T18:38:17.735Z,55.38
2023-03-27T18:40:50.823Z,55.69
2023-03-27T18:43:22.427Z,55.64
2023-03-27T18:45:57.079Z,55.96
2023-03-27T18:48:29.520Z,56.15
2023-03-27T18:51:02.284Z,56.45
2023-03-27T18:53:54.535Z,56.74
2023-03-27T18:56:40.129Z,56.85
2023-03-27T18:59:23.859Z,57.06
2023-03-27T19:01:57.772Z,57.40
2023-03-27T19:04:46.557Z,57.75
2023-03-27T19:07:45.373Z,57.85
2023-03-27T19:10:36.017Z,58.18
2023-03-27T19:13:44.360Z,58.14
2023-03-27T19:16:35.945Z,58.40
2023-03-27T19:19:32.026Z,58.44
2023-03-27T19:22:30.611Z,58.55
2023-03-27T19:25:26.881Z,58.45
2023-03-27T19:28:12.111Z,58.53
2023-03-27T19:31:07.272Z,58.42
2023-03-27T19:33:46.932Z,58.76
2023-03-27T19:36:18.141Z,58.83
2023-03-27T19:38:47.188Z,58.70
2023-03-27T19:41:15.781Z,59.00
2023-03-27T19:43:44.662Z,58.80
2023-03-27T19:46:16.765Z,59.09
2023-03-27T19:48:46.795Z,58.93
2023-03-27T19:51:27.880Z,59.19
2023-03-27T19:53:56.745Z,59.32
2023-03-27T19:56:27.538Z,59.12
2023-03-27T19:58:56.273Z,59.36
2023-03-27T20:01:27.779Z,59.40
2023-03-27T20:03:56.860Z,59.48
2023-03-27T20:06:28.245Z,59.50
2023-03-27T20:08:59.667Z,59.71
2023-03-27T20:11:28.717Z,59.97
2023-03-27T20:13:57.428Z,60.03
2023-03-27T20:16:27.724Z,60.03
2023-03-27T20:19:02.780Z,59.99
2023-03-27T20:21:34.120Z,60.14
2023-03-27T20:24:03.399Z,60.22
2023-03-27T20:26:38.590Z,60.44
2023-03-27T20:29:13.173Z,60.47
2023-03-27T20:31:42.253Z,60.63
2023-03-27T20:34:11.211Z,60.91
2023-03-27T20:36:40.054Z,60.96
2023-03-27T20:39:32.789Z,61.15
2023-03-27T20:42:01.355Z,61.29
2023-03-27T20:44:34.803Z,61.36
2023-03-27T20:47:11.540Z,61.46
2023-03-27T20:49:42.261Z,61.51
2023-03-27T20:52:12.560Z,61.84
2023-03-27T20:54:41.177Z,61.96
2023-03-27T20:57:12.278Z,62.02
2023-03-27T20:59:41.125Z,62.28
2023-03-27T21:02:15.710Z,62.31
2023-03-27T21:04:45.890Z,62.07
2023-03-27T21:07:15.247Z,62.44
2023-03-27T21:09:46.016Z,62.60
2023-03-27T21:12:14.712Z,62.74
2023-03-27T21:14:43.523Z,63.17
2023-03-27T21:17:13.476Z,62.96
2023-03-27T21:19:42.004Z,63.02
2023-03-27T21:22:10.731Z,63.33
2023-03-27T21:24:41.250Z,63.29
2023-03-27T21:27:10.095Z,63.34
2023-03-27T21:29:38.932Z,63.59
2023-03-27T21:32:08.625Z,63.81
2023-03-27T21:34:37.377Z,63.90
2023-03-27T21:37:06.085Z,64.13
2023-03-27T21:39:34.843Z,63.97
2023-03-27T21:42:03.726Z,64.45
2023-03-27T21:44:32.430Z,64.68
2023-03-27T21:47:01.101Z,64.87
2023-03-27T21:49:29.923Z,64.90
2023-03-27T21:51:58.589Z,64.93
2023-03-27T21:54:27.232Z,64.95
2023-03-27T21:56:55.933Z,65.08
2023-03-27T21:59:24.749Z,65.24
2023-03-27T22:01:54.805Z,65.33
2023-03-27T22:04:23.700Z,65.60
2023-03-27T22:06:52.401Z,65.67
2023-03-27T22:09:21.332Z,65.67
2023-03-27T22:11:50.017Z,65.49
2023-03-27T22:14:18.730Z,65.74
2023-03-27T22:16:47.638Z,65.72
2023-03-27T22:19:16.275Z,65.99
2023-03-27T22:21:45.064Z,65.88
2023-03-27T22:24:13.797Z,65.92
2023-03-27T22:26:42.410Z,66.10
2023-03-27T22:29:11.288Z,66.05
2023-03-27T22:31:40.228Z,66.26
2023-03-27T22:34:08.834Z,66.23
2023-03-27T22:36:37.761Z,66.38
2023-03-27T22:39:06.352Z,66.74
2023-03-27T22:41:35.220Z,66.59
2023-03-27T22:44:04.011Z,66.72
2023-03-27T22:46:33.489Z,66.93
2023-03-27T22:49:02.377Z,67.47
2023-03-27T22:51:31.351Z,67.98
2023-03-27T22:54:00.210Z,68.12
2023-03-27T22:56:29.176Z,68.65
2023-03-27T22:58:57.787Z,68.94
2023-03-27T23:01:26.553Z,69.37
2023-03-27T23:03:55.304Z,69.65
2023-03-27T23:06:25.115Z,69.83
2023-03-27T23:08:54.162Z,69.95
2023-03-27T23:11:23.074Z,69.90
2023-03-27T23:13:51.791Z,70.18
2023-03-27T23:16:20.409Z,70.57
2023-03-27T23:18:49.069Z,70.99
2023-03-27T23:21:18.169Z,72.00
2023-03-27T23:23:47.073Z,72.36
2023-03-27T23:26:17.488Z,72.95
2023-03-27T23:28:46.157Z,73.42
2023-03-27T23:31:16.904Z,73.51
2023-03-27T23:33:48.134Z,73.22
2023-03-27T23:36:18.854Z,73.45
2023-03-27T23:38:47.931Z,73.44
2023-03-27T23:41:16.929Z,73.39
2023-03-27T23:43:45.741Z,73.35
2023-03-27T23:46:14.877Z,73.21
2023-03-27T23:48:44.756Z,73.45
2023-03-27T23:51:15.329Z,73.71
2023-03-27T23:53:44.355Z,74.14
2023-03-27T23:56:13.123Z,74.66
2023-03-27T23:58:42.105Z,74.89
